Time;durP1;ratioP1;P1;durP2;ratioP2;P2;SDS_P1;SDS_P2;PMS_P1;PMS_P2;Temp;Humidity;BMP_temperature;BMP_pressure;BME280_temperature;BME280_humidity;BME280_pressure;Samples;Min_cycle;Max_cycle;Signal;HPM_P1;HPM_P2
2023/11/22 00:00:59;;;;;;;9.93;6.82;;;9.00;99.90;;;8.24;100.00;102398.06;4167348;28;20026;-75
2023/11/22 00:03:00;;;;;;;12.52;7.95;;;8.90;99.90;;;8.16;100.00;102389.81;4168561;28;20021;-75
2023/11/22 00:05:01;;;;;;;11.18;6.90;;;8.90;99.90;;;8.20;100.00;102405.31;4167931;28;20022;-75
2023/11/22 00:07:01;;;;;;;13.88;6.85;;;8.80;99.90;;;8.13;100.00;102400.53;4157819;28;20037;-75
2023/11/22 00:09:02;;;;;;;13.15;7.90;;;8.80;99.90;;;8.20;100.00;102407.94;4151043;28;20026;-75
2023/11/22 00:11:05;;;;;;;14.25;7.55;;;8.80;99.90;;;8.31;100.00;102410.75;4154740;28;20026;-75
2023/11/22 00:13:06;;;;;;;12.90;7.57;;;8.90;99.90;;;8.44;100.00;102416.03;4155692;28;20037;-75
2023/11/22 00:15:08;;;;;;;21.58;7.90;;;9.00;99.90;;;8.52;100.00;102411.09;4155649;28;20045;-75
2023/11/22 00:17:10;;;;;;;12.70;7.47;;;9.10;99.90;;;8.61;100.00;102410.50;4154386;28;20512;-75
2023/11/22 00:19:11;;;;;;;13.30;8.23;;;9.20;99.90;;;8.66;100.00;102405.75;4155645;28;20393;-75
2023/11/22 00:21:12;;;;;;;12.55;7.75;;;9.30;99.90;;;8.72;100.00;102404.53;4155488;28;20026;-75
2023/11/22 00:23:13;;;;;;;10.13;7.05;;;9.30;99.90;;;8.74;100.00;102403.47;4155465;28;20088;-75
2023/11/22 00:25:14;;;;;;;10.57;6.63;;;9.40;99.90;;;8.79;100.00;102408.41;4154277;28;20029;-75
2023/11/22 00:27:15;;;;;;;11.38;7.45;;;9.40;99.90;;;8.80;100.00;102405.69;4154009;28;20026;-75
2023/11/22 00:29:16;;;;;;;10.57;7.47;;;9.50;99.90;;;8.82;100.00;102403.78;4154405;28;20030;-75
2023/11/22 00:31:17;;;;;;;10.90;7.57;;;9.50;99.90;;;8.87;100.00;102420.09;4155374;28;20052;-75
2023/11/22 00:33:19;;;;;;;11.15;7.10;;;9.50;99.90;;;8.89;100.00;102396.31;4155330;28;20030;-75
2023/11/22 00:35:20;;;;;;;10.88;6.40;;;9.50;99.90;;;8.87;100.00;102403.47;4154111;28;20022;-75
2023/11/22 00:37:21;;;;;;;10.60;6.97;;;9.50;99.90;;;8.87;100.00;102390.31;4156811;28;20049;-75
2023/11/22 00:39:22;;;;;;;13.70;7.47;;;9.50;99.90;;;8.88;100.00;102403.38;4171665;28;20041;-75
2023/11/22 00:41:23;;;;;;;14.98;7.45;;;9.60;99.90;;;8.87;100.00;102404.31;4170045;28;20493;-75
2023/11/22 00:43:25;;;;;;;11.50;7.38;;;9.50;99.90;;;8.91;100.00;102399.69;4170314;28;20504;-75
2023/11/22 00:45:26;;;;;;;9.25;7.45;;;9.60;99.90;;;8.95;100.00;102393.28;4183951;28;20168;-75
2023/11/22 00:47:26;;;;;;;10.73;7.38;;;9.60;99.90;;;8.98;100.00;102400.09;4187050;28;20550;-75
2023/11/22 00:49:28;;;;;;;9.52;7.05;;;9.60;99.90;;;8.99;100.00;102407.06;4171509;28;20444;-75
2023/11/22 00:51:29;;;;;;;10.82;6.78;;;9.70;99.90;;;9.03;100.00;102409.38;4153711;28;20037;-75
2023/11/22 00:53:30;;;;;;;10.77;7.20;;;9.70;99.90;;;9.05;100.00;102409.28;4186793;28;20021;-75
2023/11/22 00:55:31;;;;;;;10.05;7.00;;;9.70;99.90;;;9.06;100.00;102409.16;4170276;28;20115;-75
2023/11/22 00:57:32;;;;;;;13.40;6.47;;;9.70;99.90;;;9.06;100.00;102405.69;4168436;28;20029;-75
2023/11/22 00:59:33;;;;;;;10.88;6.50;;;9.80;99.90;;;9.07;100.00;102399.47;4171287;28;20037;-75
2023/11/22 01:01:34;;;;;;;13.77;7.03;;;9.70;99.90;;;9.07;100.00;102395.06;4171049;28;20029;-75
2023/11/22 01:03:35;;;;;;;11.15;6.70;;;9.80;99.90;;;9.08;100.00;102403.81;4153637;28;20034;-75
2023/11/22 01:05:36;;;;;;;12.75;7.50;;;9.80;99.90;;;9.12;100.00;102407.88;4171242;28;20017;-75
2023/11/22 01:07:37;;;;;;;9.32;6.20;;;9.80;99.90;;;9.14;100.00;102408.66;4169195;28;20025;-75
2023/11/22 01:09:38;;;;;;;9.05;6.18;;;9.80;99.90;;;9.19;100.00;102415.28;4169932;28;20075;-75
2023/11/22 01:11:40;;;;;;;10.70;6.05;;;9.90;99.90;;;9.23;100.00;102416.72;4170993;28;20034;-75
2023/11/22 01:13:42;;;;;;;10.15;6.40;;;9.90;99.90;;;9.29;100.00;102418.94;4153566;28;20033;-75
2023/11/22 01:15:44;;;;;;;9.65;5.70;;;10.00;99.90;;;9.32;100.00;102420.50;4171022;28;20036;-75
2023/11/22 01:17:45;;;;;;;9.57;6.00;;;10.00;99.90;;;9.31;100.00;102424.09;4151112;28;20028;-75
2023/11/22 01:19:46;;;;;;;7.30;5.63;;;10.00;99.90;;;9.29;100.00;102416.31;4171167;28;20030;-75
2023/11/22 01:21:47;;;;;;;9.48;5.72;;;10.00;99.90;;;9.30;100.00;102418.00;4169554;28;20032;-75
2023/11/22 01:23:48;;;;;;;10.48;5.60;;;10.00;99.90;;;9.35;100.00;102409.75;4153346;28;20110;-75
2023/11/22 01:25:50;;;;;;;7.30;4.68;;;10.00;99.90;;;9.38;100.00;102420.94;4170776;28;20401;-75
2023/11/22 01:27:50;;;;;;;9.05;5.45;;;10.10;99.90;;;9.39;100.00;102405.97;4167130;28;20057;-75
2023/11/22 01:29:54;;;;;;;9.90;5.10;;;10.10;99.90;;;9.41;100.00;102414.59;4162206;28;20032;-75
2023/11/22 01:31:55;;;;;;;12.25;6.05;;;10.10;99.90;;;9.39;100.00;102417.34;4170968;28;20396;-75
2023/11/22 01:33:56;;;;;;;8.30;4.80;;;10.10;99.90;;;9.38;100.00;102420.94;4153082;28;20120;-75
2023/11/22 01:35:57;;;;;;;12.27;5.70;;;10.10;99.90;;;9.38;100.00;102420.06;4167471;28;20026;-75
2023/11/22 01:37:57;;;;;;;9.93;4.65;;;10.10;99.90;;;9.39;100.00;102424.41;4163765;28;20025;-75
2023/11/22 01:39:58;;;;;;;9.10;4.25;;;10.10;99.90;;;9.43;100.00;102433.78;4169521;28;20037;-75
2023/11/22 01:41:59;;;;;;;6.38;4.22;;;10.10;99.90;;;9.45;100.00;102432.72;4152634;28;20029;-75
2023/11/22 01:44:00;;;;;;;10.50;5.25;;;10.10;99.90;;;9.47;100.00;102439.69;4170523;28;20025;-75
2023/11/22 01:46:01;;;;;;;6.65;4.35;;;10.10;99.90;;;9.52;100.00;102443.69;4170666;28;20025;-75
2023/11/22 01:48:03;;;;;;;8.35;4.97;;;10.10;99.90;;;9.57;100.00;102446.81;4153001;28;20037;-75
2023/11/22 01:50:08;;;;;;;10.60;4.28;;;10.20;99.90;;;9.59;100.00;102450.19;4178624;28;20111;-75
2023/11/22 01:52:10;;;;;;;9.73;4.43;;;10.20;99.90;;;9.63;100.00;102443.75;4182519;28;20033;-75
2023/11/22 01:54:12;;;;;;;11.15;4.07;;;10.30;99.90;;;9.64;100.00;102445.47;4169476;28;20140;-75
2023/11/22 01:56:13;;;;;;;8.57;3.78;;;10.30;99.90;;;9.70;100.00;102455.56;4169345;28;20029;-75
2023/11/22 01:58:14;;;;;;;11.52;4.28;;;10.30;99.90;;;9.74;100.00;102457.00;4180303;28;20498;-75
2023/11/22 02:00:16;;;;;;;6.72;3.88;;;10.40;99.90;;;9.77;100.00;102455.94;4155828;28;20025;-75
2023/11/22 02:02:17;;;;;;;14.32;4.13;;;10.40;99.90;;;9.78;100.00;102461.13;4185589;28;20484;-75
2023/11/22 02:04:18;;;;;;;12.35;4.22;;;10.40;99.90;;;9.82;100.00;102454.69;4185676;28;20032;-75
2023/11/22 02:06:21;;;;;;;10.27;4.47;;;10.50;99.90;;;9.82;100.00;102462.59;4185521;28;20037;-75
2023/11/22 02:08:22;;;;;;;8.45;4.45;;;10.50;99.90;;;9.86;100.00;102458.78;4178419;28;20059;-75
2023/11/22 02:10:23;;;;;;;9.38;3.42;;;10.50;99.90;;;9.85;100.00;102459.75;4170382;28;20017;-75
2023/11/22 02:12:24;;;;;;;13.52;3.90;;;10.50;99.90;;;9.86;100.00;102456.13;4152512;28;20034;-75
2023/11/22 02:14:25;;;;;;;12.20;3.15;;;10.50;99.90;;;9.90;100.00;102454.97;4152475;28;20052;-75
2023/11/22 02:16:27;;;;;;;9.00;3.03;;;10.50;99.90;;;9.93;100.00;102464.47;4152413;28;20029;-75
2023/11/22 02:18:29;;;;;;;10.15;3.25;;;10.50;99.90;;;9.92;100.00;102463.59;4176933;28;20400;-75
2023/11/22 02:20:32;;;;;;;7.22;3.40;;;10.60;99.90;;;9.92;100.00;102463.59;4168735;28;20029;-75
2023/11/22 02:22:33;;;;;;;11.75;3.17;;;10.60;99.90;;;9.90;100.00;102460.25;4186342;28;20558;-75
2023/11/22 02:24:34;;;;;;;7.50;3.35;;;10.60;99.90;;;9.91;100.00;102469.00;4186586;28;20028;-75
2023/11/22 02:26:36;;;;;;;9.23;3.42;;;10.60;99.90;;;9.92;100.00;102457.50;4186343;28;20021;-75
2023/11/22 02:28:37;;;;;;;10.88;3.25;;;10.60;99.90;;;9.91;100.00;102456.69;4143407;28;20046;-75
2023/11/22 02:30:38;;;;;;;7.90;2.72;;;10.60;99.90;;;9.94;100.00;102452.97;4152273;28;20022;-75
2023/11/22 02:32:39;;;;;;;8.30;2.72;;;10.60;99.90;;;9.96;100.00;102459.81;4169520;28;20075;-75
2023/11/22 02:34:40;;;;;;;7.28;2.63;;;10.60;99.90;;;9.96;100.00;102461.59;4169834;28;20045;-75
2023/11/22 02:36:45;;;;;;;8.57;2.53;;;10.60;99.90;;;9.93;100.00;102470.56;4169792;28;20033;-75
2023/11/22 02:38:46;;;;;;;8.02;2.45;;;10.60;99.90;;;9.92;100.00;102468.88;4161915;28;20029;-75
2023/11/22 02:40:50;;;;;;;5.15;2.33;;;10.60;99.90;;;9.90;100.00;102465.53;4186384;28;20051;-75
2023/11/22 02:42:53;;;;;;;10.73;2.57;;;10.60;99.90;;;9.93;100.00;102459.19;4168469;28;20073;-75
2023/11/22 02:44:54;;;;;;;9.02;2.13;;;10.60;99.90;;;9.92;100.00;102463.59;4186042;28;20551;-75
2023/11/22 02:46:55;;;;;;;7.57;2.40;;;10.60;99.90;;;9.94;100.00;102466.16;4168255;28;20055;-75
2023/11/22 02:48:55;;;;;;;8.13;2.08;;;10.60;99.90;;;9.93;100.00;102464.47;4157418;28;20018;-75
2023/11/22 02:50:56;;;;;;;15.48;2.55;;;10.60;99.90;;;9.94;100.00;102474.91;4151922;28;20405;-75
2023/11/22 02:52:59;;;;;;;4.93;2.30;;;10.60;99.90;;;9.94;100.00;102467.00;4168850;28;20048;-75
2023/11/22 02:55:00;;;;;;;6.97;2.47;;;10.60;99.90;;;9.92;100.00;102462.75;4169407;28;20083;-75
2023/11/22 02:57:01;;;;;;;10.38;3.22;;;10.60;99.90;;;9.93;100.00;102465.31;4169351;28;20029;-75
2023/11/22 02:59:01;;;;;;;5.25;1.98;;;10.60;99.90;;;9.94;100.00;102467.00;4173940;28;20091;-75
2023/11/22 03:01:03;;;;;;;8.40;2.30;;;10.60;99.90;;;9.90;100.00;102476.06;4185796;28;20032;-75
2023/11/22 03:03:08;;;;;;;7.10;2.15;;;10.60;99.90;;;9.95;100.00;102471.28;4168227;28;20021;-75
2023/11/22 03:05:09;;;;;;;6.22;2.20;;;10.60;99.90;;;9.90;100.00;102476.06;4186077;28;20530;-75
2023/11/22 03:07:10;;;;;;;8.07;2.45;;;10.60;99.90;;;9.92;100.00;102471.50;4168156;28;20052;-75
2023/11/22 03:09:13;;;;;;;6.78;1.70;;;10.60;99.90;;;9.94;100.00;102482.81;4155023;28;20034;-75
2023/11/22 03:11:14;;;;;;;11.40;2.67;;;10.60;99.90;;;9.90;100.00;102483.13;4168943;28;20025;-75
2023/11/22 03:13:15;;;;;;;7.10;2.15;;;10.60;99.90;;;9.91;100.00;102483.03;4151852;28;20021;-75
2023/11/22 03:15:16;;;;;;;8.63;1.95;;;10.60;99.90;;;9.91;100.00;102487.47;4151791;28;20029;-75
2023/11/22 03:17:17;;;;;;;14.10;2.15;;;10.60;99.90;;;9.94;100.00;102492.50;4169223;28;20029;-75
2023/11/22 03:19:19;;;;;;;8.82;2.20;;;10.60;99.90;;;9.94;100.00;102497.78;4151478;28;20030;-75
2023/11/22 03:21:20;;;;;;;8.23;2.83;;;10.60;99.90;;;9.94;100.00;102497.78;4169156;28;20447;-75
2023/11/22 03:23:21;;;;;;;16.98;3.20;;;10.60;99.90;;;9.94;100.00;102497.78;4169101;28;20029;-75
2023/11/22 03:25:23;;;;;;;7.07;1.90;;;10.60;99.90;;;9.94;100.00;102500.41;4169038;28;20026;-75
2023/11/22 03:27:25;;;;;;;6.03;1.40;;;10.60;99.90;;;9.93;100.00;102498.72;4168625;28;20075;-75
2023/11/22 03:29:26;;;;;;;7.70;2.25;;;10.60;99.90;;;9.92;100.00;102497.03;4172651;28;20586;-75
2023/11/22 03:31:30;;;;;;;6.68;1.75;;;10.60;99.90;;;9.90;100.00;102507.69;4185683;28;20032;-75
2023/11/22 03:33:30;;;;;;;7.43;1.85;;;10.60;99.90;;;9.90;100.00;102497.16;4185605;28;20029;-75
2023/11/22 03:35:31;;;;;;;16.42;2.05;;;10.60;99.90;;;9.93;100.00;102496.09;4167676;28;20037;-75
2023/11/22 03:37:33;;;;;;;8.80;2.47;;;10.60;99.90;;;9.93;100.00;102496.94;4167570;28;20041;-75
2023/11/22 03:39:34;;;;;;;11.60;2.47;;;10.60;99.90;;;9.92;100.00;102497.88;4151705;28;20157;-75
2023/11/22 03:41:34;;;;;;;8.82;1.80;;;10.60;99.90;;;9.91;100.00;102500.63;4180380;28;20484;-75
2023/11/22 03:43:35;;;;;;;10.73;2.28;;;10.60;99.90;;;9.92;100.00;102502.31;4185199;28;20369;-75
2023/11/22 03:45:36;;;;;;;6.63;1.75;;;10.60;99.90;;;9.88;100.00;102501.69;4184467;28;20067;-75
2023/11/22 03:47:37;;;;;;;8.82;2.42;;;10.60;99.90;;;9.89;100.00;102498.09;4185277;28;20476;-75
2023/11/22 03:49:39;;;;;;;8.10;2.08;;;10.60;99.90;;;9.89;100.00;102500.72;4185231;28;20013;-75
2023/11/22 03:51:41;;;;;;;12.40;2.55;;;10.60;99.90;;;9.88;100.00;102499.06;4183217;28;20073;-75
2023/11/22 03:53:42;;;;;;;9.45;2.38;;;10.50;99.90;;;9.89;100.00;102502.50;4167695;28;20034;-75
2023/11/22 03:55:43;;;;;;;9.60;2.75;;;10.60;99.90;;;9.89;100.00;102499.88;4167525;28;20040;-75
2023/11/22 03:57:44;;;;;;;6.43;1.67;;;10.50;99.90;;;9.88;100.00;102509.59;4173141;28;20032;-75
2023/11/22 03:59:45;;;;;;;3.10;1.50;;;10.50;99.90;;;9.85;100.00;102507.19;4168543;28;20033;-75
2023/11/22 04:01:45;;;;;;;8.88;2.05;;;10.50;99.90;;;9.87;100.00;102510.56;4151120;28;20038;-75
2023/11/22 04:03:50;;;;;;;11.55;2.30;;;10.50;99.90;;;9.86;100.00;102508.84;4151138;28;20040;-75
2023/11/22 04:05:51;;;;;;;;;;;10.50;99.90;;;9.84;100.00;102513.41;4169027;28;20068;-75
2023/11/22 04:07:52;;;;;;;8.27;1.65;;;10.50;99.90;;;9.84;100.00;102507.28;4150797;28;19939;-75
2023/11/22 04:09:52;;;;;;;12.73;2.45;;;10.50;99.90;;;9.80;100.00;102504.00;4168731;28;20072;-75
2023/11/22 04:11:54;;;;;;;9.80;2.15;;;10.50;99.90;;;9.85;100.00;102514.25;4150842;28;20497;-75
2023/11/22 04:13:55;;;;;;;11.77;2.83;;;10.50;99.90;;;9.83;100.00;102516.97;4168536;28;20013;-75
2023/11/22 04:15:56;;;;;;;7.20;1.70;;;10.50;99.90;;;9.83;100.00;102511.69;4168412;28;20113;-75
2023/11/22 04:17:57;;;;;;;10.77;1.92;;;10.50;99.90;;;9.82;100.00;102517.09;4168572;28;20481;-75
2023/11/22 04:19:58;;;;;;;5.88;1.70;;;10.50;99.90;;;9.83;100.00;102508.22;4151043;28;20037;-74
2023/11/22 04:21:59;;;;;;;9.23;1.65;;;10.50;99.90;;;9.84;100.00;102513.41;4150956;28;20022;-75
2023/11/22 04:23:59;;;;;;;6.57;2.03;;;10.50;99.90;;;9.84;100.00;102531.00;4168245;28;20079;-75
2023/11/22 04:26:01;;;;;;;6.05;1.75;;;10.50;99.90;;;9.82;100.00;102523.22;4168193;28;20029;-75
2023/11/22 04:28:02;;;;;;;8.68;1.92;;;10.50;99.90;;;9.83;100.00;102527.53;4150805;28;20116;-75
2023/11/22 04:30:04;;;;;;;11.15;1.75;;;10.50;99.90;;;9.85;100.00;102530.91;4150997;28;20025;-75
2023/11/22 04:32:05;;;;;;;8.43;1.73;;;10.50;99.90;;;9.85;100.00;102527.44;4168435;28;20087;-75
2023/11/22 04:34:06;;;;;;;7.65;1.80;;;10.50;99.90;;;9.85;100.00;102530.91;4168353;28;20030;-75
2023/11/22 04:36:08;;;;;;;5.28;1.80;;;10.50;99.90;;;9.84;100.00;102525.72;4168479;28;20515;-75
2023/11/22 04:38:09;;;;;;;11.07;3.03;;;10.50;99.90;;;9.84;100.00;102529.22;4168479;28;20022;-75
2023/11/22 04:40:11;;;;;;;7.22;1.60;;;10.50;99.90;;;9.81;100.00;102529.44;4168410;28;20083;-75
2023/11/22 04:42:12;;;;;;;4.70;2.15;;;10.50;99.90;;;9.83;100.00;102538.06;4150496;28;20033;-75
2023/11/22 04:44:13;;;;;;;11.70;1.92;;;10.50;99.90;;;9.80;100.00;102534.78;4150733;28;20116;-75
2023/11/22 04:46:13;;;;;;;11.93;2.15;;;10.50;99.90;;;9.84;100.00;102549.44;4150841;28;20517;-75
2023/11/22 04:48:15;;;;;;;11.48;2.45;;;10.50;99.90;;;9.82;100.00;102546.94;4168296;28;20033;-75
2023/11/22 04:50:16;;;;;;;6.82;1.70;;;10.50;99.90;;;9.85;100.00;102554.63;4150522;28;20034;-75
2023/11/22 04:52:16;;;;;;;13.35;1.85;;;10.50;99.90;;;9.81;100.00;102555.78;4149932;28;20030;-75
2023/11/22 04:54:17;;;;;;;9.95;1.85;;;10.50;99.90;;;9.78;100.00;102556.00;4150733;28;20022;-75
2023/11/22 04:56:18;;;;;;;13.93;2.00;;;10.50;99.90;;;9.77;100.00;102558.72;4169363;28;20021;-75
2023/11/22 04:58:19;;;;;;;11.18;2.83;;;10.50;99.90;;;9.79;100.00;102557.69;4153713;28;20026;-75
2023/11/22 05:00:22;;;;;;;4.63;1.85;;;10.50;99.90;;;9.76;100.00;102555.28;4137418;28;20045;-75
2023/11/22 05:02:23;;;;;;;10.43;2.15;;;10.40;99.90;;;9.79;100.00;102562.13;4153139;28;20030;-75
2023/11/22 05:04:26;;;;;;;5.05;2.40;;;10.50;99.90;;;9.79;100.00;102568.25;4153770;28;20032;-75
2023/11/22 05:06:29;;;;;;;8.45;1.95;;;10.50;99.90;;;9.75;100.00;102564.13;4153447;28;20022;-75
2023/11/22 05:08:30;;;;;;;5.30;1.63;;;10.40;99.90;;;9.80;100.00;102574.31;4153508;28;20026;-75
2023/11/22 05:10:31;;;;;;;5.70;2.17;;;10.40;99.90;;;9.78;100.00;102582.34;4163729;28;20052;-75
2023/11/22 05:12:32;;;;;;;12.18;2.13;;;10.40;99.90;;;9.78;100.00;102586.78;4159462;28;20076;-75
2023/11/22 05:14:33;;;;;;;7.80;2.30;;;10.40;99.90;;;9.77;100.00;102593.84;4185788;28;20032;-75
2023/11/22 05:16:34;;;;;;;5.68;1.63;;;10.40;99.90;;;9.77;100.00;102588.56;4169754;28;20044;-75
2023/11/22 05:18:35;;;;;;;10.23;1.85;;;10.40;99.90;;;9.77;100.00;102588.56;4187426;28;20035;-75
2023/11/22 05:20:36;;;;;;;8.88;2.22;;;10.40;99.90;;;9.77;100.00;102588.56;4187466;28;20029;-75
2023/11/22 05:22:37;;;;;;;9.93;2.17;;;10.40;99.90;;;9.76;100.00;102591.31;4187216;28;20095;-75
2023/11/22 05:24:41;;;;;;;5.50;1.38;;;10.40;99.90;;;9.76;100.00;102592.16;4187510;28;20032;-75
2023/11/22 05:26:42;;;;;;;8.02;1.52;;;10.40;99.90;;;9.77;100.00;102591.19;4187237;28;20036;-75
2023/11/22 05:28:43;;;;;;;6.47;1.90;;;10.40;99.90;;;9.75;100.00;102590.47;4187325;28;20496;-75
2023/11/22 05:30:43;;;;;;;10.30;1.55;;;10.40;99.90;;;9.72;100.00;102588.03;4187185;28;20056;-75
2023/11/22 05:32:44;;;;;;;9.25;1.83;;;10.40;99.90;;;9.73;100.00;102584.47;4187314;28;20029;-75
2023/11/22 05:34:45;;;;;;;12.32;2.72;;;10.40;99.90;;;9.73;100.00;102583.63;4169585;28;20030;-75
2023/11/22 05:36:46;;;;;;;7.43;1.90;;;10.40;99.90;;;9.72;100.00;102585.41;4187252;28;20025;-75
2023/11/22 05:38:47;;;;;;;5.43;1.55;;;10.40;99.90;;;9.74;100.00;102596.69;4187088;28;20033;-75
2023/11/22 05:40:47;;;;;;;6.97;1.50;;;10.40;99.90;;;9.75;100.00;102598.38;4187269;28;20043;-75
2023/11/22 05:42:48;;;;;;;8.65;1.75;;;10.40;99.90;;;9.73;100.00;102600.28;4186920;28;20037;-75
2023/11/22 05:44:50;;;;;;;8.27;1.98;;;10.40;99.90;;;9.74;100.00;102609.00;4186930;28;20044;-75
2023/11/22 05:46:51;;;;;;;6.80;2.00;;;10.40;99.90;;;9.73;100.00;102610.81;4187107;28;20082;-75
2023/11/22 05:48:52;;;;;;;9.75;1.95;;;10.40;99.90;;;9.70;100.00;102610.19;4169494;28;20033;-75
2023/11/22 05:50:53;;;;;;;7.43;1.60;;;10.40;99.90;;;9.66;100.00;102608.69;4169199;28;20049;-75
2023/11/22 05:52:53;;;;;;;8.88;2.50;;;10.40;99.90;;;9.68;100.00;102612.06;4184211;28;20040;-75
2023/11/22 05:54:56;;;;;;;8.55;1.92;;;10.40;99.90;;;9.72;100.00;102618.81;4169218;28;20038;-75
2023/11/22 05:56:57;;;;;;;8.68;2.00;;;10.40;99.90;;;9.72;100.00;102619.66;4186872;28;20466;-75
2023/11/22 05:58:59;;;;;;;8.32;2.25;;;10.40;99.90;;;9.68;100.00;102623.44;4186941;28;20035;-75
2023/11/22 06:01:00;;;;;;;5.78;1.98;;;10.40;99.90;;;9.66;100.00;102625.34;4182520;28;20029;-75
2023/11/22 06:03:01;;;;;;;7.35;1.42;;;10.40;99.90;;;9.65;100.00;102622.81;4170211;28;20035;-75
2023/11/22 06:05:02;;;;;;;12.05;1.90;;;10.30;99.90;;;9.68;100.00;102633.13;4170541;28;20025;-75
2023/11/22 06:07:02;;;;;;;6.40;1.73;;;10.30;99.90;;;9.69;100.00;102629.56;4170152;28;20077;-75
2023/11/22 06:09:07;;;;;;;8.80;1.40;;;10.30;99.90;;;9.67;100.00;102644.66;4169303;28;20030;-75
2023/11/22 06:11:07;;;;;;;8.27;2.58;;;10.30;99.90;;;9.67;100.00;102634.97;4170259;28;20033;-75
2023/11/22 06:13:08;;;;;;;10.13;1.80;;;10.30;99.90;;;9.66;100.00;102643.81;4169146;28;20022;-75
2023/11/22 06:15:09;;;;;;;4.13;1.50;;;10.30;99.90;;;9.66;100.00;102641.16;4186722;28;20035;-75
2023/11/22 06:17:10;;;;;;;6.95;1.90;;;10.30;99.90;;;9.65;100.00;102642.09;4174456;28;20447;-75
2023/11/22 06:19:11;;;;;;;9.18;1.63;;;10.30;99.90;;;9.65;100.00;102643.88;4169977;28;20034;-75
2023/11/22 06:21:12;;;;;;;6.03;1.25;;;10.30;99.90;;;9.64;100.00;102652.75;4170129;28;20033;-75
2023/11/22 06:23:14;;;;;;;7.63;1.50;;;10.30;99.90;;;9.59;100.00;102650.41;4169985;28;20104;-75
2023/11/22 06:25:15;;;;;;;5.03;1.60;;;10.30;99.90;;;9.64;100.00;102648.34;4170050;28;20021;-75
2023/11/22 06:27:16;;;;;;;6.82;1.58;;;10.30;99.90;;;9.63;100.00;102645.78;4169689;28;20026;-75
2023/11/22 06:29:17;;;;;;;7.68;1.58;;;10.30;99.90;;;9.64;100.00;102637.81;4170111;28;20021;-75
2023/11/22 06:31:18;;;;;;;5.72;2.00;;;10.30;99.90;;;9.63;100.00;102635.25;4152399;28;20029;-75
2023/11/22 06:33:19;;;;;;;5.57;1.70;;;10.30;99.90;;;9.62;100.00;102629.13;4169439;28;20026;-75
2023/11/22 06:35:20;;;;;;;3.50;1.50;;;10.30;99.90;;;9.63;100.00;102640.53;4168562;28;20582;-75
2023/11/22 06:37:21;;;;;;;6.80;1.33;;;10.30;99.90;;;9.62;100.00;102644.09;4152546;28;20029;-75
2023/11/22 06:39:22;;;;;;;9.95;2.67;;;10.30;99.90;;;9.61;100.00;102634.53;4152262;28;20058;-75
2023/11/22 06:41:23;;;;;;;5.50;1.52;;;10.30;99.90;;;9.59;100.00;102637.25;4169458;28;20044;-75
2023/11/22 06:43:24;;;;;;;7.93;1.63;;;10.30;99.90;;;9.57;100.00;102641.78;4166851;28;20034;-75
2023/11/22 06:45:25;;;;;;;2.63;1.20;;;10.20;99.90;;;9.56;100.00;102648.00;4151384;28;20053;-75
2023/11/22 06:47:27;;;;;;;5.55;1.50;;;10.20;99.90;;;9.54;100.00;102651.69;4153350;28;20030;-75
2023/11/22 06:49:28;;;;;;;5.03;1.65;;;10.20;99.90;;;9.54;100.00;102651.69;4153231;28;20026;-75
2023/11/22 06:51:29;;;;;;;7.55;2.42;;;10.20;99.90;;;9.53;100.00;102650.00;4152447;28;20018;-75
2023/11/22 06:53:30;;;;;;;4.47;2.20;;;10.20;99.90;;;9.50;100.00;102650.22;4154592;28;20021;-75
2023/11/22 06:55:32;;;;;;;4.75;1.38;;;10.20;99.90;;;9.50;100.00;102651.03;4168482;28;20108;-75
2023/11/22 06:57:34;;;;;;;8.70;1.77;;;10.20;99.90;;;9.47;100.00;102650.41;4169498;28;20077;-75
2023/11/22 06:59:35;;;;;;;6.75;1.20;;;10.20;99.90;;;9.45;100.00;102650.50;4169436;28;20041;-75
2023/11/22 07:01:36;;;;;;;7.10;1.42;;;10.10;99.90;;;9.36;100.00;102661.66;4169406;28;20033;-75
2023/11/22 07:03:40;;;;;;;4.15;1.20;;;10.10;99.90;;;9.29;100.00;102660.34;4163850;28;20028;-75
2023/11/22 07:05:41;;;;;;;10.02;1.98;;;10.00;99.90;;;9.13;100.00;102644.75;4153053;28;20104;-75
2023/11/22 07:07:42;;;;;;;5.72;1.70;;;10.00;99.90;;;9.05;100.00;102646.19;4153008;28;20484;-75
2023/11/22 07:09:44;;;;;;;8.23;1.85;;;9.80;99.90;;;8.92;100.00;102640.03;4152718;28;20022;-75
2023/11/22 07:11:45;;;;;;;7.10;2.92;;;9.70;99.90;;;8.77;100.00;102640.06;4152921;28;20477;-73
2023/11/22 07:13:47;;;;;;;10.27;1.40;;;9.60;99.90;;;8.69;100.00;102641.50;4147617;28;20033;-74
2023/11/22 07:15:48;;;;;;;5.97;1.42;;;9.50;99.90;;;8.58;100.00;102641.31;4149192;28;20034;-75
2023/11/22 07:17:49;;;;;;;11.82;2.22;;;9.40;99.90;;;8.53;100.00;102649.50;4153704;28;20052;-75
2023/11/22 07:19:51;;;;;;;7.20;1.75;;;9.30;99.90;;;8.49;100.00;102655.03;4169358;28;20033;-75
2023/11/22 07:21:53;;;;;;;3.33;1.30;;;9.20;99.90;;;8.44;100.00;102654.50;4169166;28;20039;-75
2023/11/22 07:23:54;;;;;;;9.05;1.88;;;9.10;99.90;;;8.41;100.00;102655.53;4162936;28;20397;-75
2023/11/22 07:25:55;;;;;;;7.32;1.50;;;9.10;99.90;;;8.37;100.00;102646.13;4152535;28;20048;-75
2023/11/22 07:27:56;;;;;;;4.32;1.23;;;9.10;99.90;;;8.31;100.00;102652.63;4150876;28;20022;-75
2023/11/22 07:29:57;;;;;;;5.72;1.77;;;9.00;99.90;;;8.26;100.00;102653.81;4145648;28;20030;-75
2023/11/22 07:31:58;;;;;;;7.50;1.60;;;9.00;99.90;;;8.23;100.00;102656.63;4151546;28;20029;-75
2023/11/22 07:34:01;;;;;;;5.53;2.00;;;8.90;99.90;;;8.23;100.00;102660.13;4151306;28;20185;-76
2023/11/22 07:36:03;;;;;;;10.80;2.77;;;8.90;99.90;;;8.18;100.00;102658.72;4169427;28;20037;-76
2023/11/22 07:38:04;;;;;;;5.43;1.92;;;8.90;99.90;;;8.19;100.00;102665.63;4169012;28;20033;-76
2023/11/22 07:40:08;;;;;;;8.63;1.77;;;8.90;99.90;;;8.17;100.00;102664.91;4168910;28;20036;-76
2023/11/22 07:42:09;;;;;;;4.45;1.13;;;8.80;99.90;;;8.16;100.00;102669.31;4168870;28;20037;-76
2023/11/22 07:44:10;;;;;;;9.07;1.63;;;8.80;99.90;;;8.15;100.00;102677.31;4162680;28;20029;-76
2023/11/22 07:46:14;;;;;;;10.82;1.77;;;8.80;99.90;;;8.17;100.00;102688.56;4169098;28;20021;-76
2023/11/22 07:48:15;;;;;;;6.15;1.42;;;8.80;99.90;;;8.16;100.00;102702.63;4168657;28;20029;-76
2023/11/22 07:50:17;;;;;;;4.70;1.70;;;8.80;99.90;;;8.16;100.00;102700.00;4151219;28;20029;-76
2023/11/22 07:52:18;;;;;;;6.30;1.65;;;8.80;99.90;;;8.17;100.00;102704.31;4168175;28;20026;-76
2023/11/22 07:54:22;;;;;;;8.55;1.52;;;8.80;99.90;;;8.20;100.00;102706.78;4159787;28;20034;-76
2023/11/22 07:56:22;;;;;;;4.07;1.35;;;8.90;99.90;;;8.23;100.00;102717.94;4149081;28;20121;-77
2023/11/22 07:58:23;;;;;;;5.35;1.67;;;8.90;99.90;;;8.23;100.00;102725.00;4151218;28;20486;-75
2023/11/22 08:00:24;;;;;;;7.45;1.60;;;8.90;99.90;;;8.21;100.00;102727.69;4151166;28;20030;-75
2023/11/22 08:02:25;;;;;;;7.38;1.70;;;8.90;99.90;;;8.23;100.00;102735.50;4170172;28;20029;-76
2023/11/22 08:04:26;;;;;;;5.80;1.42;;;8.90;99.90;;;8.25;100.00;102741.50;4166772;28;20028;-74
2023/11/22 08:06:27;;;;;;;3.40;1.10;;;8.90;99.90;;;8.23;100.00;102740.75;4139038;28;20107;-79
2023/11/22 08:08:28;;;;;;;5.78;1.80;;;8.90;99.90;;;8.23;100.00;102738.13;4168556;28;20480;-77
2023/11/22 08:10:29;;;;;;;7.03;1.35;;;8.90;99.90;;;8.23;100.00;102739.00;4168628;28;20087;-76
2023/11/22 08:12:30;;;;;;;7.20;1.40;;;8.90;99.90;;;8.19;100.00;102726.94;4150828;28;20032;-75
2023/11/22 08:14:31;;;;;;;9.63;1.50;;;8.90;99.90;;;8.23;100.00;102736.34;4134595;28;20027;-75
2023/11/22 08:16:38;;;;;;;6.78;1.85;;;8.90;99.90;;;8.24;100.00;102730.13;4170704;28;20099;-75
2023/11/22 08:18:40;;;;;;;4.90;2.42;;;9.00;99.90;;;8.28;100.00;102726.44;4184979;28;20078;-76
2023/11/22 08:20:41;;;;;;;6.75;1.15;;;9.00;99.90;;;8.30;100.00;102728.97;4167343;28;20083;-74
2023/11/22 08:22:41;;;;;;;4.63;1.27;;;9.00;99.90;;;8.30;100.00;102728.97;4167035;28;20025;-74
2023/11/22 08:24:43;;;;;;;9.93;1.73;;;9.00;99.90;;;8.44;100.00;102720.25;4167402;28;20109;-74